Time;durP1;ratioP1;P1;durP2;ratioP2;P2;SDS_P1;SDS_P2;PMS_P1;PMS_P2;Temp;Humidity;BMP_temperature;BMP_pressure;BME280_temperature;BME280_humidity;BME280_pressure;Samples;Min_cycle;Max_cycle;Signal;HPM_P1;HPM_P2
2021/09/27 00:00:49;;;;;;;9.05;7.97;;;15.00;99.90;;;;;;4989481;28;20201;-83
2021/09/27 00:03:17;;;;;;;11.45;8.93;;;15.00;99.90;;;;;;5005327;28;20198;-84
2021/09/27 00:05:45;;;;;;;9.73;8.00;;;15.10;99.90;;;;;;5005980;28;20218;-83
2021/09/27 00:08:13;;;;;;;10.27;8.60;;;15.10;99.90;;;;;;5006466;28;20762;-82
2021/09/27 00:10:48;;;;;;;9.93;8.25;;;15.00;99.90;;;;;;4999404;28;20202;-81
2021/09/27 00:13:17;;;;;;;10.80;9.57;;;14.80;99.90;;;;;;5005594;28;20223;-82
2021/09/27 00:15:48;;;;;;;10.68;9.60;;;14.80;99.90;;;;;;5005703;28;20210;-83
2021/09/27 00:18:17;;;;;;;10.60;9.60;;;14.80;99.90;;;;;;5005389;28;20289;-81
2021/09/27 00:20:48;;;;;;;10.35;9.10;;;15.00;99.90;;;;;;5005159;28;20206;-82
2021/09/27 00:23:17;;;;;;;10.18;9.15;;;14.80;99.90;;;;;;5006041;28;20408;-83
2021/09/27 00:25:45;;;;;;;11.10;9.05;;;14.90;99.90;;;;;;4988740;28;20266;-81
2021/09/27 00:28:14;;;;;;;11.00;9.20;;;14.90;99.90;;;;;;5006073;28;20206;-81
2021/09/27 00:30:42;;;;;;;11.20;9.93;;;15.00;99.90;;;;;;5005793;28;20214;-81
2021/09/27 00:33:10;;;;;;;12.55;10.50;;;14.90;99.90;;;;;;4992133;28;20234;-82
2021/09/27 00:35:39;;;;;;;11.27;10.02;;;14.80;99.90;;;;;;5006807;28;20199;-86
2021/09/27 00:38:08;;;;;;;10.50;9.38;;;14.70;99.90;;;;;;5006399;28;20198;-82
2021/09/27 00:40:43;;;;;;;11.85;10.32;;;14.80;99.90;;;;;;5006191;28;20209;-84
2021/09/27 00:43:11;;;;;;;14.57;9.60;;;14.70;99.90;;;;;;5006071;28;20219;-82
2021/09/27 00:45:43;;;;;;;14.02;11.63;;;14.60;99.90;;;;;;5007027;28;20539;-84
2021/09/27 00:48:11;;;;;;;12.98;10.90;;;14.50;99.90;;;;;;5007080;28;20503;-89
2021/09/27 00:50:46;;;;;;;11.80;10.52;;;14.60;99.90;;;;;;5006885;28;20415;-83
2021/09/27 00:53:27;;;;;;;13.30;11.55;;;14.60;99.90;;;;;;5006225;28;20228;-82
2021/09/27 00:55:56;;;;;;;11.35;10.10;;;14.60;99.90;;;;;;4989340;28;20216;-83
2021/09/27 00:58:25;;;;;;;12.98;10.80;;;14.60;99.90;;;;;;5005907;28;20419;-82
2021/09/27 01:00:53;;;;;;;12.02;9.48;;;14.60;99.90;;;;;;5002034;28;20198;-83
2021/09/27 01:03:22;;;;;;;13.00;11.80;;;14.60;99.90;;;;;;4986332;28;20222;-83
2021/09/27 01:06:14;;;;;;;13.02;10.60;;;14.70;99.90;;;;;;5002353;28;20206;-83
2021/09/27 01:08:54;;;;;;;12.98;10.98;;;14.70;99.90;;;;;;5005696;28;20197;-84
2021/09/27 01:11:47;;;;;;;15.15;11.02;;;14.70;99.90;;;;;;4988822;28;20233;-84
2021/09/27 01:14:23;;;;;;;15.55;11.65;;;14.70;99.90;;;;;;4989315;28;20531;-83
2021/09/27 01:17:01;;;;;;;14.02;12.35;;;14.60;99.90;;;;;;5025100;28;20186;-82
2021/09/27 01:20:18;;;;;;;15.88;12.13;;;14.50;99.90;;;;;;4969234;28;20194;-84
2021/09/27 01:23:13;;;;;;;12.65;11.27;;;14.50;99.90;;;;;;4993887;28;20511;-83
2021/09/27 01:26:09;;;;;;;12.85;11.20;;;14.60;99.90;;;;;;4994292;28;20256;-82
2021/09/27 01:29:14;;;;;;;12.30;10.98;;;14.60;99.90;;;;;;4999157;28;20204;-81
2021/09/27 01:32:06;;;;;;;15.77;12.82;;;14.50;99.90;;;;;;4996276;28;20499;-84
2021/09/27 01:35:12;;;;;;;14.73;11.82;;;14.60;99.90;;;;;;4998939;28;20249;-82
2021/09/27 01:38:26;;;;;;;14.70;12.25;;;14.60;99.90;;;;;;4988333;28;20201;-87
2021/09/27 01:41:27;;;;;;;12.30;11.05;;;14.50;99.90;;;;;;4941865;29;20235;-86
2021/09/27 01:44:06;;;;;;;15.27;12.65;;;14.50;99.90;;;;;;4999915;28;20217;-81
2021/09/27 01:46:44;;;;;;;16.42;12.82;;;14.50;99.90;;;;;;5006727;28;20208;-81
2021/09/27 01:50:01;;;;;;;17.35;13.50;;;14.50;99.90;;;;;;5007413;28;20193;-88
2021/09/27 01:52:36;;;;;;;15.02;12.75;;;14.40;99.90;;;;;;4977368;28;20205;-81
2021/09/27 01:55:29;;;;;;;19.55;13.95;;;14.40;99.90;;;;;;5004811;28;20225;-80
2021/09/27 01:58:08;;;;;;;20.27;13.80;;;14.40;99.90;;;;;;4988609;28;20198;-81
2021/09/27 02:00:42;;;;;;;16.92;14.40;;;14.40;99.90;;;;;;5004227;28;20193;-81
2021/09/27 02:03:32;;;;;;;16.48;12.25;;;14.40;99.90;;;;;;4989091;28;20379;-82
2021/09/27 02:06:30;;;;;;;15.98;13.38;;;14.40;99.90;;;;;;5001474;28;20399;-82
2021/09/27 02:09:28;;;;;;;17.90;13.25;;;14.40;99.90;;;;;;4986069;28;20213;-82
2021/09/27 02:12:08;;;;;;;18.73;13.85;;;14.40;99.90;;;;;;4984966;28;20221;-82
2021/09/27 02:14:54;;;;;;;20.38;13.77;;;14.40;99.90;;;;;;5003183;28;20205;-80
2021/09/27 02:17:49;;;;;;;24.63;14.38;;;14.30;99.90;;;;;;4997613;28;20207;-81
2021/09/27 02:20:33;;;;;;;14.88;13.23;;;14.40;99.90;;;;;;4990301;28;20539;-80
2021/09/27 02:23:11;;;;;;;15.80;12.85;;;14.20;99.90;;;;;;5000861;28;20480;-82
2021/09/27 02:25:41;;;;;;;16.75;14.48;;;14.20;99.90;;;;;;5003632;28;20236;-82
2021/09/27 02:28:15;;;;;;;18.42;15.38;;;14.20;99.90;;;;;;4990497;28;20206;-85
2021/09/27 02:30:42;;;;;;;17.50;14.30;;;14.10;99.90;;;;;;5007474;28;20620;-81
2021/09/27 02:33:19;;;;;;;16.52;14.25;;;14.20;99.90;;;;;;5006364;28;20212;-81
2021/09/27 02:35:59;;;;;;;16.77;14.93;;;14.10;99.90;;;;;;5007610;28;20189;-81
2021/09/27 02:38:50;;;;;;;21.00;15.73;;;14.20;99.90;;;;;;5003378;28;20190;-82
2021/09/27 02:41:36;;;;;;;17.20;14.55;;;14.10;99.90;;;;;;5003023;28;20214;-85
2021/09/27 02:44:04;;;;;;;18.73;13.80;;;14.10;99.90;;;;;;5007262;28;20438;-83
2021/09/27 02:46:32;;;;;;;17.40;14.40;;;14.10;99.90;;;;;;5007091;28;20244;-81
2021/09/27 02:49:10;;;;;;;18.08;15.30;;;14.10;99.90;;;;;;5007328;28;20209;-81
2021/09/27 02:51:39;;;;;;;19.75;14.82;;;14.10;99.90;;;;;;5007128;28;20197;-81
2021/09/27 02:54:08;;;;;;;21.42;15.30;;;14.10;99.90;;;;;;5008412;28;20213;-83
2021/09/27 02:56:59;;;;;;;17.50;13.77;;;14.20;99.90;;;;;;5007564;28;20273;-83
2021/09/27 02:59:35;;;;;;;15.98;14.25;;;14.10;99.90;;;;;;5006695;28;20201;-84
2021/09/27 03:02:08;;;;;;;18.67;15.27;;;14.10;99.90;;;;;;5006123;28;20213;-84
2021/09/27 03:05:08;;;;;;;19.00;15.48;;;13.90;99.90;;;;;;5006189;28;20557;-81
2021/09/27 03:08:06;;;;;;;22.60;14.85;;;13.90;99.90;;;;;;4992762;28;20204;-81
2021/09/27 03:10:42;;;;;;;20.80;16.55;;;14.00;99.90;;;;;;4999667;28;20190;-82
2021/09/27 03:13:36;;;;;;;21.00;15.60;;;14.00;99.90;;;;;;4996828;28;20235;-82
2021/09/27 03:16:18;;;;;;;20.08;14.77;;;14.00;99.90;;;;;;5005707;28;20206;-82
2021/09/27 03:19:13;;;;;;;20.98;16.30;;;14.00;99.90;;;;;;4988679;28;20205;-82
2021/09/27 03:22:01;;;;;;;20.52;16.02;;;14.00;99.90;;;;;;5006105;28;20264;-82
2021/09/27 03:24:35;;;;;;;24.98;18.02;;;13.90;99.90;;;;;;5004817;28;20213;-84
2021/09/27 03:27:16;;;;;;;24.83;17.63;;;13.90;99.90;;;;;;5005581;28;20432;-84
2021/09/27 03:29:43;;;;;;;19.20;16.30;;;13.90;99.90;;;;;;5003625;28;20237;-83
2021/09/27 03:32:31;;;;;;;22.33;17.20;;;13.90;99.90;;;;;;4998176;28;20237;-85
2021/09/27 03:35:26;;;;;;;23.35;18.33;;;13.90;99.90;;;;;;5004066;28;20202;-81
2021/09/27 03:38:10;;;;;;;23.45;16.73;;;13.90;99.90;;;;;;5006725;28;20260;-83
2021/09/27 03:40:40;;;;;;;35.60;17.55;;;13.70;99.90;;;;;;5006718;28;20208;-85
2021/09/27 03:43:57;;;;;;;26.67;18.65;;;13.70;99.90;;;;;;5007689;28;20533;-83
2021/09/27 03:46:37;;;;;;;28.02;19.75;;;13.80;99.90;;;;;;5008082;28;20403;-81
2021/09/27 03:49:20;;;;;;;21.23;18.02;;;13.90;99.90;;;;;;4992895;28;20228;-82
2021/09/27 03:52:00;;;;;;;25.15;16.75;;;13.90;99.90;;;;;;4990743;28;20205;-81
2021/09/27 03:54:32;;;;;;;21.83;17.30;;;13.80;99.90;;;;;;5007921;28;20309;-86
2021/09/27 03:57:20;;;;;;;19.58;16.05;;;13.90;99.90;;;;;;5008698;28;20479;-80
2021/09/27 04:00:01;;;;;;;21.42;17.30;;;13.80;99.90;;;;;;5008217;28;20205;-82
2021/09/27 04:02:45;;;;;;;24.10;20.17;;;13.80;99.90;;;;;;5006390;28;20209;-81
2021/09/27 04:05:34;;;;;;;29.45;20.88;;;13.70;99.90;;;;;;5007361;28;20400;-79
2021/09/27 04:08:09;;;;;;;24.17;19.08;;;13.70;99.90;;;;;;4989999;28;20197;-81
2021/09/27 04:11:18;;;;;;;31.25;21.10;;;13.70;99.90;;;;;;5006949;28;20215;-81
2021/09/27 04:13:55;;;;;;;21.63;18.42;;;13.70;99.90;;;;;;5006609;28;20509;-83
2021/09/27 04:16:37;;;;;;;23.88;17.45;;;13.80;99.90;;;;;;5006814;28;20268;-89
2021/09/27 04:19:16;;;;;;;26.55;18.48;;;13.70;99.90;;;;;;4997719;28;20194;-90
2021/09/27 04:22:02;;;;;;;21.65;18.33;;;13.80;99.90;;;;;;5006576;28;20201;-81
2021/09/27 04:25:01;;;;;;;24.02;18.42;;;13.80;99.90;;;;;;5007354;28;20217;-80
2021/09/27 04:28:10;;;;;;;30.10;21.45;;;13.80;99.90;;;;;;5007813;28;20244;-89
2021/09/27 04:30:40;;;;;;;23.70;17.92;;;13.80;99.90;;;;;;4987920;28;20519;-83
2021/09/27 04:33:19;;;;;;;27.80;20.05;;;13.80;99.90;;;;;;4999538;28;20391;-88
2021/09/27 04:36:02;;;;;;;21.10;17.33;;;13.80;99.90;;;;;;4989456;28;20206;-81
2021/09/27 04:38:31;;;;;;;27.58;21.00;;;13.80;99.90;;;;;;4991259;28;20206;-87
2021/09/27 04:41:10;;;;;;;28.30;21.42;;;13.80;99.90;;;;;;5006034;28;20211;-83
2021/09/27 04:43:56;;;;;;;26.77;18.88;;;13.80;99.90;;;;;;5008677;28;20213;-84
2021/09/27 04:46:42;;;;;;;25.35;19.42;;;13.90;99.90;;;;;;4991083;28;20260;-85
2021/09/27 04:50:03;;;;;;;25.00;19.15;;;13.90;99.90;;;;;;5001796;28;20209;-80
2021/09/27 04:52:30;;;;;;;23.13;18.45;;;13.90;99.90;;;;;;4982785;28;20205;-82
2021/09/27 04:55:25;;;;;;;25.90;18.85;;;13.90;99.90;;;;;;4987622;28;20202;-81
2021/09/27 04:58:10;;;;;;;28.63;19.55;;;13.80;99.90;;;;;;5004958;28;20220;-80
2021/09/27 05:01:02;;;;;;;25.98;20.35;;;13.80;99.90;;;;;;4993305;28;20221;-81
2021/09/27 05:03:45;;;;;;;24.42;19.70;;;13.90;99.90;;;;;;5001733;28;20197;-81
2021/09/27 05:06:31;;;;;;;27.98;20.63;;;13.90;99.90;;;;;;5006096;28;20458;-81
2021/09/27 05:09:26;;;;;;;27.52;19.00;;;13.90;99.90;;;;;;5006380;28;20244;-84
2021/09/27 05:12:02;;;;;;;28.17;21.23;;;14.00;99.90;;;;;;5006902;28;20260;-82
2021/09/27 05:14:45;;;;;;;25.80;19.27;;;14.00;99.90;;;;;;5006174;28;20211;-79
2021/09/27 05:17:21;;;;;;;25.23;20.83;;;14.10;99.90;;;;;;5001417;28;20205;-81
2021/09/27 05:19:57;;;;;;;27.63;18.83;;;14.20;99.90;;;;;;4988403;28;20209;-81
2021/09/27 05:22:40;;;;;;;27.25;19.13;;;14.20;99.90;;;;;;5002804;28;20511;-81
2021/09/27 05:25:16;;;;;;;23.77;19.73;;;14.30;99.90;;;;;;5005350;28;20233;-80
2021/09/27 05:28:10;;;;;;;24.85;19.45;;;14.40;99.90;;;;;;5004562;28;20211;-81
2021/09/27 05:31:09;;;;;;;23.58;17.27;;;14.50;99.90;;;;;;4975372;28;20201;-80
2021/09/27 05:33:46;;;;;;;24.63;20.42;;;14.70;99.90;;;;;;4993991;28;20205;-85
2021/09/27 05:36:27;;;;;;;25.02;19.80;;;14.70;99.90;;;;;;5005495;28;20236;-81
2021/09/27 05:39:20;;;;;;;29.92;21.50;;;14.80;99.90;;;;;;5006085;28;20240;-80
2021/09/27 05:41:59;;;;;;;24.67;20.08;;;14.90;99.90;;;;;;5005423;28;20231;-85
2021/09/27 05:44:58;;;;;;;20.63;18.08;;;14.90;99.90;;;;;;4998442;28;20546;-85
2021/09/27 05:47:39;;;;;;;20.10;17.90;;;15.00;99.90;;;;;;4987028;28;20203;-82
2021/09/27 05:50:25;;;;;;;21.25;17.92;;;15.10;99.90;;;;;;4991145;28;20193;-79
2021/09/27 05:53:13;;;;;;;22.08;17.70;;;15.30;99.90;;;;;;5006818;28;20190;-85
2021/09/27 05:55:50;;;;;;;21.95;17.73;;;15.30;99.90;;;;;;5001461;28;20201;-80
2021/09/27 05:58:37;;;;;;;21.20;18.20;;;15.30;99.90;;;;;;5001138;28;20415;-87
2021/09/27 06:01:24;;;;;;;25.58;17.55;;;15.20;99.90;;;;;;5005448;28;20195;-80
2021/09/27 06:04:21;;;;;;;25.47;18.53;;;15.30;99.90;;;;;;5007367;28;20224;-82
2021/09/27 06:07:22;;;;;;;23.27;18.02;;;15.50;99.90;;;;;;5012448;28;20396;-82
2021/09/27 06:09:59;;;;;;;23.45;19.60;;;15.70;99.90;;;;;;4993431;28;20495;-81
2021/09/27 06:12:45;;;;;;;21.67;17.40;;;15.80;99.90;;;;;;5011819;28;20206;-82
2021/09/27 06:15:15;;;;;;;24.20;18.10;;;16.00;99.90;;;;;;5012636;28;20432;-81
2021/09/27 06:18:07;;;;;;;27.60;19.80;;;16.20;99.90;;;;;;5012061;28;20200;-79
2021/09/27 06:20:52;;;;;;;23.23;17.73;;;16.40;99.90;;;;;;4994918;28;20416;-81
2021/09/27 06:23:40;;;;;;;20.20;16.57;;;16.50;99.90;;;;;;5003868;28;20392;-80
2021/09/27 06:26:13;;;;;;;21.20;17.77;;;16.50;99.90;;;;;;5011998;28;20460;-85
2021/09/27 06:28:47;;;;;;;21.63;18.90;;;16.70;99.90;;;;;;5011375;28;20433;-78
2021/09/27 06:31:36;;;;;;;21.00;18.03;;;16.80;99.90;;;;;;5012325;28;20446;-82
2021/09/27 06:34:16;;;;;;;22.53;17.80;;;16.90;99.90;;;;;;5012362;28;20397;-81
2021/09/27 06:36:45;;;;;;;21.03;17.87;;;17.30;99.90;;;;;;5011709;28;20510;-79
2021/09/27 06:39:23;;;;;;;22.17;18.60;;;17.20;99.90;;;;;;5011780;28;20563;-81
2021/09/27 06:41:52;;;;;;;21.80;16.57;;;17.00;99.90;;;;;;5011823;28;20431;-81
2021/09/27 06:44:22;;;;;;;17.13;15.33;;;17.00;99.90;;;;;;5005254;28;20584;-80
2021/09/27 06:46:49;;;;;;;21.43;17.20;;;16.90;99.90;;;;;;5011002;28;20738;-81
2021/09/27 06:49:17;;;;;;;19.33;16.03;;;16.70;99.90;;;;;;5011452;28;20414;-82
2021/09/27 06:51:45;;;;;;;24.93;18.50;;;16.60;99.90;;;;;;5010083;28;20491;-90
2021/09/27 06:54:15;;;;;;;20.53;17.30;;;16.60;99.90;;;;;;5011501;28;20762;-80
2021/09/27 06:56:43;;;;;;;23.73;18.37;;;16.60;99.90;;;;;;5012106;28;20403;-80
2021/09/27 06:59:11;;;;;;;25.57;18.57;;;16.80;99.90;;;;;;5011456;28;20453;-81
2021/09/27 07:01:39;;;;;;;20.17;17.80;;;17.10;99.90;;;;;;4996308;28;20431;-80
2021/09/27 07:04:06;;;;;;;24.00;17.70;;;17.50;99.90;;;;;;5010598;28;20408;-81
2021/09/27 07:06:34;;;;;;;25.23;20.13;;;18.00;99.90;;;;;;5011964;28;20448;-80
2021/09/27 07:09:02;;;;;;;21.80;19.37;;;18.60;99.90;;;;;;5011280;28;20421;-79
2021/09/27 07:11:30;;;;;;;19.90;17.27;;;19.30;99.90;;;;;;5010364;28;20441;-82
2021/09/27 07:13:57;;;;;;;20.40;18.37;;;19.90;99.90;;;;;;5009412;28;20833;-82
2021/09/27 07:16:24;;;;;;;20.00;17.80;;;19.50;99.90;;;;;;5008318;28;20453;-81
2021/09/27 07:19:06;;;;;;;24.37;17.67;;;19.80;99.90;;;;;;5008559;28;20407;-82
2021/09/27 07:21:36;;;;;;;19.43;17.43;;;20.30;99.90;;;;;;5008380;28;20391;-86
2021/09/27 07:24:04;;;;;;;21.47;17.20;;;20.10;99.90;;;;;;5008211;28;20423;-79
2021/09/27 07:26:32;;;;;;;23.47;19.60;;;20.20;99.90;;;;;;4995739;28;20554;-84
2021/09/27 07:28:59;;;;;;;21.57;17.67;;;20.50;99.90;;;;;;5009369;28;20439;-83
2021/09/27 07:31:28;;;;;;;22.97;17.90;;;20.80;99.90;;;;;;4971402;28;20441;-82
2021/09/27 07:33:56;;;;;;;19.10;16.27;;;21.20;99.90;;;;;;4999092;28;20466;-81
2021/09/27 07:36:24;;;;;;;17.67;15.50;;;21.90;99.90;;;;;;5009031;28;20520;-82
2021/09/27 07:38:52;;;;;;;22.43;17.23;;;22.70;99.90;;;;;;5010026;28;20432;-87
2021/09/27 07:41:25;;;;;;;20.10;15.60;;;21.90;99.90;;;;;;4991720;28;20578;-90
2021/09/27 07:43:54;;;;;;;23.27;16.93;;;20.30;99.90;;;;;;5007871;28;20470;-86
2021/09/27 07:46:22;;;;;;;24.07;17.40;;;19.60;99.90;;;;;;5007701;28;20466;-82
2021/09/27 07:48:51;;;;;;;21.73;18.17;;;19.70;99.90;;;;;;5006793;28;20424;-85
2021/09/27 07:51:19;;;;;;;20.30;18.10;;;19.90;99.90;;;;;;5008114;28;20423;-81
2021/09/27 07:53:47;;;;;;;18.00;16.10;;;20.30;99.90;;;;;;5006709;28;20428;-80
2021/09/27 07:56:15;;;;;;;16.50;14.90;;;20.50;99.90;;;;;;5006696;28;20462;-90
2021/09/27 07:58:42;;;;;;;21.23;15.93;;;20.70;99.90;;;;;;5007213;28;20653;-80
2021/09/27 08:01:10;;;;;;;18.33;16.20;;;21.00;99.90;;;;;;5000651;28;20412;-81
2021/09/27 08:03:37;;;;;;;15.03;13.43;;;21.20;99.90;;;;;;5006870;28;20478;-89
2021/09/27 08:06:05;;;;;;;21.73;19.60;;;20.80;99.90;;;;;;5001324;28;20455;-85
2021/09/27 08:08:32;;;;;;;18.13;15.77;;;20.20;99.90;;;;;;4998448;28;20412;-81
2021/09/27 08:11:00;;;;;;;20.77;17.47;;;20.30;99.90;;;;;;5007635;28;20440;-80
2021/09/27 08:13:27;;;;;;;16.27;14.60;;;21.10;99.90;;;;;;5007600;28;20533;-81
2021/09/27 08:15:55;;;;;;;17.93;15.53;;;21.80;99.90;;;;;;5005365;28;20459;-80
2021/09/27 08:18:23;;;;;;;17.40;14.80;;;21.80;99.90;;;;;;5006718;28;20869;-80
2021/09/27 08:21:03;;;;;;;19.23;15.47;;;21.70;99.90;;;;;;5007202;28;20599;-88
2021/09/27 08:23:30;;;;;;;18.00;14.60;;;22.40;99.90;;;;;;5007490;28;20591;-80
2021/09/27 08:25:58;;;;;;;17.33;15.53;;;22.90;99.90;;;;;;4988302;28;20468;-86
2021/09/27 08:28:27;;;;;;;14.60;13.03;;;22.70;99.90;;;;;;5005661;28;20452;-84
2021/09/27 08:31:05;;;;;;;16.53;14.40;;;22.40;99.90;;;;;;5006085;28;20455;-90
2021/09/27 08:33:33;;;;;;;16.67;13.87;;;21.60;99.90;;;;;;5006183;28;20473;-81
2021/09/27 08:36:03;;;;;;;17.27;14.00;;;21.20;99.90;;;;;;5006560;28;20445;-83
2021/09/27 08:38:37;;;;;;;14.47;12.97;;;21.10;99.90;;;;;;5005696;28;20412;-82
2021/09/27 08:41:30;;;;;;;18.30;13.77;;;21.20;99.90;;;;;;5006055;28;20419;-85
2021/09/27 08:44:01;;;;;;;15.80;14.10;;;21.10;99.90;;;;;;5004177;28;20463;-84
2021/09/27 08:46:35;;;;;;;14.80;13.37;;;20.80;99.90;;;;;;5005323;28;20476;-84
2021/09/27 08:49:15;;;;;;;15.30;13.37;;;21.20;99.90;;;;;;4987668;28;20429;-81
2021/09/27 08:51:44;;;;;;;13.30;12.10;;;21.80;99.90;;;;;;5004057;28;20496;-81
2021/09/27 08:54:21;;;;;;;16.73;12.57;;;22.00;99.90;;;;;;5004449;28;20447;-80
2021/09/27 08:56:53;;;;;;;15.60;14.10;;;22.40;99.90;;;;;;5005117;28;20627;-82
2021/09/27 08:59:28;;;;;;;15.53;13.50;;;22.90;99.90;;;;;;5004440;28;20819;-84
2021/09/27 09:02:34;;;;;;;14.87;13.57;;;23.10;99.90;;;;;;5003428;28;20447;-84
2021/09/27 09:05:11;;;;;;;14.73;13.10;;;23.40;99.90;;;;;;4987175;28;20464;-81
2021/09/27 09:07:59;;;;;;;15.97;13.17;;;24.10;99.90;;;;;;4999350;28;20442;-86
2021/09/27 09:10:41;;;;;;;14.40;11.53;;;24.80;99.90;;;;;;4994939;28;20447;-82
2021/09/27 09:13:12;;;;;;;14.00;12.60;;;24.40;99.90;;;;;;4992584;28;20774;-85
2021/09/27 09:15:42;;;;;;;14.23;12.83;;;24.00;99.90;;;;;;5004983;28;20443;-87
2021/09/27 09:18:19;;;;;;;14.60;13.20;;;23.50;99.90;;;;;;5005561;28;20459;-85
2021/09/27 09:20:56;;;;;;;16.03;14.37;;;22.70;99.90;;;;;;4987103;28;20697;-90
2021/09/27 09:23:32;;;;;;;15.80;13.90;;;21.90;99.90;;;;;;5002556;28;20502;-85
2021/09/27 09:26:03;;;;;;;14.30;12.90;;;21.60;99.90;;;;;;5003754;28;20813;-83
2021/09/27 09:28:31;;;;;;;15.17;13.30;;;21.70;99.90;;;;;;5004603;28;20422;-87
2021/09/27 09:31:12;;;;;;;16.23;14.63;;;21.60;99.90;;;;;;4987196;28;20731;-81
2021/09/27 09:33:57;;;;;;;17.07;15.47;;;21.30;99.90;;;;;;4989728;28;20435;-85
2021/09/27 09:36:35;;;;;;;17.77;15.87;;;20.90;99.90;;;;;;5002044;28;20449;-82
2021/09/27 09:39:12;;;;;;;17.30;15.60;;;20.70;99.90;;;;;;5003135;28;20414;-85
2021/09/27 09:41:54;;;;;;;18.73;15.93;;;20.70;99.90;;;;;;5001656;28;20434;-86
2021/09/27 09:44:26;;;;;;;18.20;14.70;;;21.10;99.90;;;;;;5002853;28;20557;-87
2021/09/27 09:46:59;;;;;;;16.10;14.60;;;21.50;99.90;;;;;;4999590;28;20484;-81
2021/09/27 09:49:29;;;;;;;17.70;15.80;;;21.80;99.90;;;;;;5002850;28;20441;-83
2021/09/27 09:52:02;;;;;;;16.57;14.63;;;21.40;99.90;;;;;;4995870;28;20488;-82
2021/09/27 09:54:38;;;;;;;16.90;15.30;;;21.10;99.90;;;;;;5004031;28;20479;-86
2021/09/27 09:57:21;;;;;;;19.13;16.60;;;20.80;99.90;;;;;;5003055;28;20776;-85
2021/09/27 10:00:07;;;;;;;19.47;16.07;;;20.90;99.90;;;;;;5003894;28;20418;-81
2021/09/27 10:02:38;;;;;;;16.77;15.00;;;20.90;99.90;;;;;;4996648;28;20413;-79
2021/09/27 10:05:25;;;;;;;20.20;18.00;;;20.80;99.90;;;;;;5002666;28;20466;-86
2021/09/27 10:07:55;;;;;;;21.60;16.97;;;20.90;99.90;;;;;;4998523;28;20411;-81
2021/09/27 10:10:32;;;;;;;19.90;17.90;;;20.90;99.90;;;;;;5002030;28;20443;-83
2021/09/27 10:13:03;;;;;;;21.73;17.13;;;21.10;99.90;;;;;;5001976;28;20636;-81
2021/09/27 10:15:33;;;;;;;20.87;14.93;;;21.10;99.90;;;;;;4984929;28;20419;-81
2021/09/27 10:18:18;;;;;;;19.20;17.27;;;21.40;99.90;;;;;;4997311;28;20505;-87
2021/09/27 10:21:05;;;;;;;21.60;17.00;;;21.40;99.90;;;;;;4985442;28;20479;-85
2021/09/27 10:23:42;;;;;;;19.13;17.07;;;21.30;99.90;;;;;;5002923;28;20423;-81
2021/09/27 10:26:26;;;;;;;19.27;17.27;;;21.60;99.90;;;;;;4996645;28;20455;-88
2021/09/27 10:28:58;;;;;;;18.50;16.60;;;21.90;99.90;;;;;;5003327;28;20484;-82
2021/09/27 10:31:27;;;;;;;21.03;18.57;;;21.60;99.90;;;;;;5002840;28;20453;-88
2021/09/27 10:34:02;;;;;;;18.97;16.97;;;21.70;99.90;;;;;;5003279;28;20433;-80
2021/09/27 10:36:56;;;;;;;20.57;17.77;;;21.40;99.90;;;;;;4999046;28;20809;-86
2021/09/27 10:39:24;;;;;;;19.03;17.13;;;21.00;99.90;;;;;;4998423;28;20474;-80
2021/09/27 10:41:56;;;;;;;18.97;16.97;;;21.10;99.90;;;;;;4999876;28;20432;-80
2021/09/27 10:44:33;;;;;;;19.77;16.90;;;21.20;99.90;;;;;;5003864;28;20449;-85
2021/09/27 10:47:10;;;;;;;19.53;17.43;;;21.50;99.90;;;;;;5003452;28;20458;-82
2021/09/27 10:49:43;;;;;;;20.60;18.37;;;21.30;99.90;;;;;;5004440;28;20421;-87
2021/09/27 10:52:13;;;;;;;19.70;17.60;;;21.10;99.90;;;;;;5008632;28;20720;-84
2021/09/27 10:54:57;;;;;;;19.77;17.47;;;21.00;99.90;;;;;;5007732;28;20515;-90
2021/09/27 10:57:35;;;;;;;23.17;19.10;;;20.90;99.90;;;;;;4996246;28;20458;-89
2021/09/27 11:00:14;;;;;;;21.67;17.70;;;20.90;99.90;;;;;;5007544;28;20421;-82
2021/09/27 11:02:58;;;;;;;19.47;17.37;;;21.10;99.90;;;;;;4985914;28;20449;-85
2021/09/27 11:05:41;;;;;;;27.67;21.07;;;21.10;99.90;;;;;;5007806;28;20487;-85
2021/09/27 11:08:11;;;;;;;20.07;17.97;;;20.90;99.90;;;;;;5007800;28;20880;-83
2021/09/27 11:10:48;;;;;;;20.63;17.90;;;20.80;99.90;;;;;;5007876;28;20454;-87
2021/09/27 11:13:36;;;;;;;21.40;19.10;;;20.80;99.90;;;;;;5008039;28;20515;-83
2021/09/27 11:16:21;;;;;;;22.53;19.87;;;20.90;99.90;;;;;;5006272;28;20778;-87
2021/09/27 11:19:29;;;;;;;23.70;18.50;;;20.70;99.90;;;;;;5006783;28;20443;-86
2021/09/27 11:21:56;;;;;;;18.93;16.93;;;20.20;99.90;;;;;;5008291;28;20467;-83
2021/09/27 11:24:43;;;;;;;24.80;18.10;;;20.20;99.90;;;;;;5007340;28;20421;-82
2021/09/27 11:27:30;;;;;;;21.90;16.77;;;20.30;99.90;;;;;;5007923;28;20465;-82
2021/09/27 11:30:19;;;;;;;27.70;23.23;;;20.20;99.90;;;;;;4990214;28;20490;-88
2021/09/27 11:32:58;;;;;;;23.63;18.90;;;20.00;99.90;;;;;;4990357;28;20449;-84
2021/09/27 11:35:43;;;;;;;21.93;17.73;;;20.00;99.90;;;;;;4999496;28;20447;-83
2021/09/27 11:38:29;;;;;;;23.60;20.10;;;20.00;99.90;;;;;;4989864;28;20433;-85
2021/09/27 11:41:11;;;;;;;18.87;16.83;;;20.20;99.90;;;;;;5003125;28;20432;-85
2021/09/27 11:43:47;;;;;;;24.23;20.07;;;20.30;99.90;;;;;;5007039;28;20812;-85
2021/09/27 11:46:26;;;;;;;23.17;18.40;;;20.20;99.90;;;;;;5006813;28;20461;-82
2021/09/27 11:49:32;;;;;;;25.73;19.80;;;20.20;99.90;;;;;;4996982;28;20414;-89
2021/09/27 11:52:11;;;;;;;25.43;20.67;;;20.30;99.90;;;;;;5003089;28;20438;-83
2021/09/27 11:55:00;;;;;;;26.27;19.90;;;20.30;99.90;;;;;;5007070;28;20451;-82
2021/09/27 11:57:36;;;;;;;26.87;20.70;;;20.20;99.90;;;;;;5004129;28;20425;-83
2021/09/27 12:00:25;;;;;;;24.27;20.83;;;20.10;99.90;;;;;;5007486;28;20446;-87
2021/09/27 12:03:14;;;;;;;22.00;19.63;;;20.00;99.90;;;;;;4995705;28;20421;-81
2021/09/27 12:05:53;;;;;;;23.43;20.03;;;20.00;99.90;;;;;;5004180;28;20429;-86
2021/09/27 12:08:33;;;;;;;29.60;22.17;;;20.00;99.90;;;;;;5006075;28;20417;-83
2021/09/27 12:11:09;;;;;;;22.00;19.70;;;20.20;99.90;;;;;;5006639;28;20435;-87
2021/09/27 12:13:55;;;;;;;25.43;22.07;;;20.00;99.90;;;;;;5006075;28;20516;-84
2021/09/27 12:16:50;;;;;;;25.63;22.63;;;19.80;99.90;;;;;;5005637;28;20485;-83
2021/09/27 12:19:30;;;;;;;32.50;23.17;;;19.80;99.90;;;;;;5005487;28;20426;-81
2021/09/27 12:22:03;;;;;;;22.37;19.00;;;19.90;99.90;;;;;;4988904;28;20827;-80
2021/09/27 12:24:34;;;;;;;29.83;21.70;;;19.80;99.90;;;;;;5006375;28;20552;-84
2021/09/27 12:27:12;;;;;;;29.00;21.20;;;19.90;99.90;;;;;;5005926;28;20467;-83
2021/09/27 12:29:50;;;;;;;28.67;20.83;;;20.00;99.90;;;;;;5004539;28;20600;-84
2021/09/27 12:32:24;;;;;;;23.07;19.90;;;19.90;99.90;;;;;;5005961;28;20435;-86
2021/09/27 12:34:51;;;;;;;24.37;21.57;;;19.80;99.90;;;;;;5004115;28;20439;-86
2021/09/27 12:37:20;;;;;;;23.10;18.77;;;19.70;99.90;;;;;;4989801;28;20608;-80
2021/09/27 12:39:49;;;;;;;29.23;21.53;;;19.60;99.90;;;;;;5006389;28;20476;-83
2021/09/27 12:42:28;;;;;;;26.10;21.70;;;19.40;99.90;;;;;;5005885;28;20739;-86
2021/09/27 12:45:08;;;;;;;26.57;20.40;;;19.40;99.90;;;;;;5006294;28;20447;-83
2021/09/27 12:47:36;;;;;;;29.70;22.43;;;19.40;99.90;;;;;;5005761;28;20479;-80
2021/09/27 12:50:07;;;;;;;30.83;21.17;;;19.60;99.90;;;;;;5005259;28;20413;-81
2021/09/27 12:52:47;;;;;;;27.20;21.97;;;19.50;99.90;;;;;;4989614;28;20439;-83
2021/09/27 12:55:18;;;;;;;28.77;21.40;;;19.60;99.90;;;;;;5005310;28;20445;-84
2021/09/27 12:57:51;;;;;;;27.63;20.17;;;19.60;99.90;;;;;;5005267;28;20482;-85
2021/09/27 13:00:22;;;;;;;24.53;20.57;;;19.60;99.90;;;;;;5004808;28;20473;-83
2021/09/27 13:02:50;;;;;;;25.73;20.00;;;19.40;99.90;;;;;;5004528;28;20439;-83
2021/09/27 13:05:24;;;;;;;26.90;22.43;;;19.50;99.90;;;;;;5005201;28;20414;-85
2021/09/27 13:07:56;;;;;;;35.20;23.50;;;19.50;99.90;;;;;;5005033;28;20479;-82
2021/09/27 13:10:34;;;;;;;31.43;22.37;;;19.50;99.90;;;;;;5005080;28;20623;-86
2021/09/27 13:13:10;;;;;;;24.10;19.70;;;19.40;99.90;;;;;;5005116;28;20431;-83
2021/09/27 13:15:54;;;;;;;28.93;22.90;;;19.30;99.90;;;;;;5004658;28;20439;-84
2021/09/27 13:18:36;;;;;;;26.17;20.73;;;19.40;99.90;;;;;;5005479;28;20646;-84
2021/09/27 13:21:12;;;;;;;33.37;25.70;;;19.30;99.90;;;;;;4997165;28;20729;-84
2021/09/27 13:23:56;;;;;;;29.10;23.17;;;19.20;99.90;;;;;;5004544;28;20719;-82
2021/09/27 13:26:41;;;;;;;31.50;22.63;;;19.30;99.90;;;;;;5003645;28;20470;-82